sensor_id;sensor_type;location;lat;lon;timestamp;P1;durP1;ratioP1;P2;durP2;ratioP2
64619;SDS011;51029;51.058;13.826;2022-10-16T00:01:33;18.90;;;14.50;;
64619;SDS011;51029;51.058;13.826;2022-10-16T00:03:59;17.13;;;15.33;;
64619;SDS011;51029;51.058;13.826;2022-10-16T00:06:26;18.73;;;14.47;;
64619;SDS011;51029;51.058;13.826;2022-10-16T00:08:52;19.40;;;14.13;;
64619;SDS011;51029;51.058;13.826;2022-10-16T00:11:20;16.10;;;13.80;;
64619;SDS011;51029;51.058;13.826;2022-10-16T00:13:48;16.20;;;13.10;;
64619;SDS011;51029;51.058;13.826;2022-10-16T00:16:15;15.13;;;13.63;;
64619;SDS011;51029;51.058;13.826;2022-10-16T00:18:41;15.20;;;13.70;;
64619;SDS011;51029;51.058;13.826;2022-10-16T00:21:11;15.67;;;13.83;;
64619;SDS011;51029;51.058;13.826;2022-10-16T00:23:38;16.40;;;14.80;;
64619;SDS011;51029;51.058;13.826;2022-10-16T00:26:06;16.30;;;13.60;;
64619;SDS011;51029;51.058;13.826;2022-10-16T00:28:34;16.47;;;13.37;;
64619;SDS011;51029;51.058;13.826;2022-10-16T00:31:02;15.10;;;13.40;;
64619;SDS011;51029;51.058;13.826;2022-10-16T00:33:32;14.80;;;13.23;;
64619;SDS011;51029;51.058;13.826;2022-10-16T00:35:59;16.07;;;13.57;;
64619;SDS011;51029;51.058;13.826;2022-10-16T00:38:25;15.03;;;13.33;;
64619;SDS011;51029;51.058;13.826;2022-10-16T00:40:51;18.23;;;13.87;;
64619;SDS011;51029;51.058;13.826;2022-10-16T00:45:57;14.97;;;13.50;;
64619;SDS011;51029;51.058;13.826;2022-10-16T00:48:23;14.63;;;13.17;;
64619;SDS011;51029;51.058;13.826;2022-10-16T00:50:49;15.10;;;13.47;;
64619;SDS011;51029;51.058;13.826;2022-10-16T00:53:14;15.93;;;12.80;;
64619;SDS011;51029;51.058;13.826;2022-10-16T00:55:42;14.83;;;13.33;;
64619;SDS011;51029;51.058;13.826;2022-10-16T00:58:07;15.27;;;13.87;;
64619;SDS011;51029;51.058;13.826;2022-10-16T01:00:34;15.17;;;13.07;;
64619;SDS011;51029;51.058;13.826;2022-10-16T01:03:00;15.67;;;14.10;;
64619;SDS011;51029;51.058;13.826;2022-10-16T01:05:39;18.00;;;14.37;;
64619;SDS011;51029;51.058;13.826;2022-10-16T01:08:13;15.57;;;13.87;;
64619;SDS011;51029;51.058;13.826;2022-10-16T01:10:57;14.77;;;13.37;;
64619;SDS011;51029;51.058;13.826;2022-10-16T01:13:38;15.73;;;12.93;;
64619;SDS011;51029;51.058;13.826;2022-10-16T01:16:15;18.23;;;13.10;;
64619;SDS011;51029;51.058;13.826;2022-10-16T01:19:14;14.83;;;13.43;;
64619;SDS011;51029;51.058;13.826;2022-10-16T01:22:05;16.03;;;13.37;;
64619;SDS011;51029;51.058;13.826;2022-10-16T01:24:41;17.47;;;12.90;;
64619;SDS011;51029;51.058;13.826;2022-10-16T01:27:12;16.50;;;13.40;;
64619;SDS011;51029;51.058;13.826;2022-10-16T01:32:34;14.43;;;12.90;;
64619;SDS011;51029;51.058;13.826;2022-10-16T01:35:44;16.03;;;13.00;;
64619;SDS011;51029;51.058;13.826;2022-10-16T01:37:58;13.97;;;12.67;;
64619;SDS011;51029;51.058;13.826;2022-10-16T01:40:28;14.43;;;12.87;;
64619;SDS011;51029;51.058;13.826;2022-10-16T01:42:59;15.70;;;13.03;;
64619;SDS011;51029;51.058;13.826;2022-10-16T01:45:34;13.50;;;12.20;;
64619;SDS011;51029;51.058;13.826;2022-10-16T01:48:02;13.97;;;12.67;;
64619;SDS011;51029;51.058;13.826;2022-10-16T01:50:33;15.30;;;11.73;;
64619;SDS011;51029;51.058;13.826;2022-10-16T01:53:02;14.47;;;12.97;;
64619;SDS011;51029;51.058;13.826;2022-10-16T01:55:30;14.47;;;13.00;;
64619;SDS011;51029;51.058;13.826;2022-10-16T01:58:00;16.90;;;13.47;;
64619;SDS011;51029;51.058;13.826;2022-10-16T02:00:29;15.23;;;13.40;;
64619;SDS011;51029;51.058;13.826;2022-10-16T02:02:55;13.87;;;12.57;;
64619;SDS011;51029;51.058;13.826;2022-10-16T02:05:31;15.10;;;13.43;;
64619;SDS011;51029;51.058;13.826;2022-10-16T02:08:12;14.40;;;12.93;;
64619;SDS011;51029;51.058;13.826;2022-10-16T02:10:38;14.47;;;13.20;;
64619;SDS011;51029;51.058;13.826;2022-10-16T02:15:37;15.53;;;13.93;;
64619;SDS011;51029;51.058;13.826;2022-10-16T02:18:04;14.63;;;13.30;;
64619;SDS011;51029;51.058;13.826;2022-10-16T02:20:48;14.63;;;13.27;;
64619;SDS011;51029;51.058;13.826;2022-10-16T02:23:23;16.70;;;13.43;;
64619;SDS011;51029;51.058;13.826;2022-10-16T02:26:12;14.50;;;13.00;;
64619;SDS011;51029;51.058;13.826;2022-10-16T02:28:45;15.10;;;13.33;;
64619;SDS011;51029;51.058;13.826;2022-10-16T02:31:18;16.10;;;14.40;;
64619;SDS011;51029;51.058;13.826;2022-10-16T02:33:49;14.97;;;13.57;;
64619;SDS011;51029;51.058;13.826;2022-10-16T02:36:17;15.50;;;13.83;;
64619;SDS011;51029;51.058;13.826;2022-10-16T02:38:43;16.07;;;14.27;;
64619;SDS011;51029;51.058;13.826;2022-10-16T02:41:09;15.97;;;14.30;;
64619;SDS011;51029;51.058;13.826;2022-10-16T02:43:35;15.30;;;13.77;;
64619;SDS011;51029;51.058;13.826;2022-10-16T02:46:00;18.87;;;13.67;;
64619;SDS011;51029;51.058;13.826;2022-10-16T02:48:26;14.97;;;13.50;;
64619;SDS011;51029;51.058;13.826;2022-10-16T02:50:52;16.10;;;14.07;;
64619;SDS011;51029;51.058;13.826;2022-10-16T02:53:17;15.23;;;13.63;;
64619;SDS011;51029;51.058;13.826;2022-10-16T02:55:43;15.87;;;14.17;;
64619;SDS011;51029;51.058;13.826;2022-10-16T02:58:08;15.43;;;14.00;;
64619;SDS011;51029;51.058;13.826;2022-10-16T03:00:34;16.33;;;13.33;;
64619;SDS011;51029;51.058;13.826;2022-10-16T03:03:00;15.77;;;14.37;;
64619;SDS011;51029;51.058;13.826;2022-10-16T03:05:25;15.37;;;13.77;;
64619;SDS011;51029;51.058;13.826;2022-10-16T03:07:51;15.87;;;14.37;;
64619;SDS011;51029;51.058;13.826;2022-10-16T03:10:17;17.53;;;13.80;;
64619;SDS011;51029;51.058;13.826;2022-10-16T03:12:43;15.50;;;14.00;;
64619;SDS011;51029;51.058;13.826;2022-10-16T03:15:08;15.07;;;13.67;;
64619;SDS011;51029;51.058;13.826;2022-10-16T03:17:34;15.27;;;13.77;;
64619;SDS011;51029;51.058;13.826;2022-10-16T03:20:00;17.40;;;14.00;;
64619;SDS011;51029;51.058;13.826;2022-10-16T03:22:26;14.57;;;13.17;;
64619;SDS011;51029;51.058;13.826;2022-10-16T03:24:51;15.20;;;13.70;;
64619;SDS011;51029;51.058;13.826;2022-10-16T03:27:17;14.93;;;13.33;;
64619;SDS011;51029;51.058;13.826;2022-10-16T03:29:42;16.13;;;13.07;;
64619;SDS011;51029;51.058;13.826;2022-10-16T03:32:08;15.00;;;13.47;;
64619;SDS011;51029;51.058;13.826;2022-10-16T03:34:33;13.87;;;12.47;;
64619;SDS011;51029;51.058;13.826;2022-10-16T03:36:59;13.20;;;12.00;;
64619;SDS011;51029;51.058;13.826;2022-10-16T03:39:24;15.10;;;13.07;;
64619;SDS011;51029;51.058;13.826;2022-10-16T03:41:50;17.73;;;12.90;;
64619;SDS011;51029;51.058;13.826;2022-10-16T03:44:15;14.00;;;12.60;;
64619;SDS011;51029;51.058;13.826;2022-10-16T03:46:41;14.20;;;12.80;;
64619;SDS011;51029;51.058;13.826;2022-10-16T03:49:07;14.33;;;12.67;;
64619;SDS011;51029;51.058;13.826;2022-10-16T03:51:32;15.23;;;13.70;;
64619;SDS011;51029;51.058;13.826;2022-10-16T03:53:58;14.80;;;13.37;;
64619;SDS011;51029;51.058;13.826;2022-10-16T03:56:23;15.80;;;14.33;;
64619;SDS011;51029;51.058;13.826;2022-10-16T03:58:49;14.70;;;13.30;;
64619;SDS011;51029;51.058;13.826;2022-10-16T04:01:14;15.30;;;13.90;;
64619;SDS011;51029;51.058;13.826;2022-10-16T04:03:40;15.13;;;13.63;;
64619;SDS011;51029;51.058;13.826;2022-10-16T04:06:06;18.10;;;13.07;;
64619;SDS011;51029;51.058;13.826;2022-10-16T04:08:31;14.40;;;12.90;;
64619;SDS011;51029;51.058;13.826;2022-10-16T04:10:59;15.73;;;14.23;;
64619;SDS011;51029;51.058;13.826;2022-10-16T04:13:25;15.83;;;14.20;;
64619;SDS011;51029;51.058;13.826;2022-10-16T04:15:51;15.83;;;14.20;;
64619;SDS011;51029;51.058;13.826;2022-10-16T04:18:16;14.53;;;13.00;;
64619;SDS011;51029;51.058;13.826;2022-10-16T04:20:42;15.70;;;14.10;;
64619;SDS011;51029;51.058;13.826;2022-10-16T04:23:07;16.77;;;14.83;;
64619;SDS011;51029;51.058;13.826;2022-10-16T04:25:33;18.60;;;15.10;;
64619;SDS011;51029;51.058;13.826;2022-10-16T04:27:59;16.87;;;15.10;;
64619;SDS011;51029;51.058;13.826;2022-10-16T04:30:24;18.43;;;15.33;;
64619;SDS011;51029;51.058;13.826;2022-10-16T04:32:50;15.73;;;14.03;;
64619;SDS011;51029;51.058;13.826;2022-10-16T04:35:17;16.07;;;14.47;;
64619;SDS011;51029;51.058;13.826;2022-10-16T04:37:44;16.37;;;14.83;;
64619;SDS011;51029;51.058;13.826;2022-10-16T04:40:09;16.27;;;14.67;;
64619;SDS011;51029;51.058;13.826;2022-10-16T04:42:35;17.20;;;15.70;;
64619;SDS011;51029;51.058;13.826;2022-10-16T04:45:01;18.23;;;15.17;;
64619;SDS011;51029;51.058;13.826;2022-10-16T04:47:27;16.83;;;15.03;;
64619;SDS011;51029;51.058;13.826;2022-10-16T04:49:53;17.20;;;15.40;;
64619;SDS011;51029;51.058;13.826;2022-10-16T04:52:18;16.57;;;14.97;;
64619;SDS011;51029;51.058;13.826;2022-10-16T04:54:46;16.93;;;15.33;;
64619;SDS011;51029;51.058;13.826;2022-10-16T04:57:12;16.50;;;15.03;;
64619;SDS011;51029;51.058;13.826;2022-10-16T04:59:37;17.37;;;15.57;;
64619;SDS011;51029;51.058;13.826;2022-10-16T05:02:03;17.90;;;16.07;;
64619;SDS011;51029;51.058;13.826;2022-10-16T05:04:28;16.73;;;14.40;;
64619;SDS011;51029;51.058;13.826;2022-10-16T05:06:54;16.57;;;15.00;;
64619;SDS011;51029;51.058;13.826;2022-10-16T05:09:19;17.57;;;15.10;;
64619;SDS011;51029;51.058;13.826;2022-10-16T05:11:45;19.27;;;15.27;;
64619;SDS011;51029;51.058;13.826;2022-10-16T05:14:11;16.67;;;14.97;;
64619;SDS011;51029;51.058;13.826;2022-10-16T05:16:36;17.10;;;14.70;;
64619;SDS011;51029;51.058;13.826;2022-10-16T05:19:02;17.17;;;14.57;;
64619;SDS011;51029;51.058;13.826;2022-10-16T05:21:28;15.70;;;14.20;;
64619;SDS011;51029;51.058;13.826;2022-10-16T05:23:53;16.27;;;14.37;;
64619;SDS011;51029;51.058;13.826;2022-10-16T05:26:20;16.80;;;13.53;;
64619;SDS011;51029;51.058;13.826;2022-10-16T05:28:45;15.57;;;13.60;;
64619;SDS011;51029;51.058;13.826;2022-10-16T05:31:11;15.13;;;13.60;;
64619;SDS011;51029;51.058;13.826;2022-10-16T05:33:36;16.50;;;14.10;;
64619;SDS011;51029;51.058;13.826;2022-10-16T05:36:03;18.03;;;14.33;;
64619;SDS011;51029;51.058;13.826;2022-10-16T05:38:36;15.83;;;14.00;;
64619;SDS011;51029;51.058;13.826;2022-10-16T05:41:03;18.23;;;14.43;;
64619;SDS011;51029;51.058;13.826;2022-10-16T05:43:30;15.53;;;14.13;;
64619;SDS011;51029;51.058;13.826;2022-10-16T05:46:03;15.97;;;14.13;;
64619;SDS011;51029;51.058;13.826;2022-10-16T05:48:30;15.67;;;14.17;;
64619;SDS011;51029;51.058;13.826;2022-10-16T05:51:05;16.20;;;14.50;;
64619;SDS011;51029;51.058;13.826;2022-10-16T05:53:33;14.63;;;12.93;;
64619;SDS011;51029;51.058;13.826;2022-10-16T05:56:00;17.60;;;15.33;;
64619;SDS011;51029;51.058;13.826;2022-10-16T05:58:30;16.87;;;15.13;;
64619;SDS011;51029;51.058;13.826;2022-10-16T06:00:58;16.40;;;14.90;;
64619;SDS011;51029;51.058;13.826;2022-10-16T06:03:26;17.13;;;14.20;;
64619;SDS011;51029;51.058;13.826;2022-10-16T06:05:52;16.13;;;14.53;;
64619;SDS011;51029;51.058;13.826;2022-10-16T06:08:19;16.50;;;14.77;;
64619;SDS011;51029;51.058;13.826;2022-10-16T06:10:47;16.40;;;14.80;;
64619;SDS011;51029;51.058;13.826;2022-10-16T06:13:13;15.97;;;14.47;;
64619;SDS011;51029;51.058;13.826;2022-10-16T06:15:40;16.80;;;15.27;;
64619;SDS011;51029;51.058;13.826;2022-10-16T06:18:07;15.70;;;14.37;;
64619;SDS011;51029;51.058;13.826;2022-10-16T06:20:33;16.73;;;15.00;;
64619;SDS011;51029;51.058;13.826;2022-10-16T06:22:59;18.57;;;15.50;;
64619;SDS011;51029;51.058;13.826;2022-10-16T06:25:25;18.20;;;15.63;;
64619;SDS011;51029;51.058;13.826;2022-10-16T06:27:50;16.83;;;15.33;;
64619;SDS011;51029;51.058;13.826;2022-10-16T06:30:16;18.17;;;14.83;;
64619;SDS011;51029;51.058;13.826;2022-10-16T06:32:41;20.00;;;15.30;;
64619;SDS011;51029;51.058;13.826;2022-10-16T06:35:07;17.97;;;16.20;;
64619;SDS011;51029;51.058;13.826;2022-10-16T06:37:32;18.07;;;16.37;;
64619;SDS011;51029;51.058;13.826;2022-10-16T06:39:58;19.07;;;16.97;;
64619;SDS011;51029;51.058;13.826;2022-10-16T06:42:25;19.37;;;17.57;;
64619;SDS011;51029;51.058;13.826;2022-10-16T06:44:50;19.10;;;17.20;;
64619;SDS011;51029;51.058;13.826;2022-10-16T06:47:16;18.73;;;16.67;;
64619;SDS011;51029;51.058;13.826;2022-10-16T06:49:41;18.67;;;16.87;;
64619;SDS011;51029;51.058;13.826;2022-10-16T06:52:07;17.87;;;15.90;;
64619;SDS011;51029;51.058;13.826;2022-10-16T06:54:33;18.07;;;16.37;;
64619;SDS011;51029;51.058;13.826;2022-10-16T06:56:58;17.77;;;15.87;;
64619;SDS011;51029;51.058;13.826;2022-10-16T06:59:25;105.10;;;55.03;;
64619;SDS011;51029;51.058;13.826;2022-10-16T07:01:50;47.70;;;31.83;;
64619;SDS011;51029;51.058;13.826;2022-10-16T07:04:16;24.93;;;19.50;;
64619;SDS011;51029;51.058;13.826;2022-10-16T07:06:41;18.20;;;16.27;;
64619;SDS011;51029;51.058;13.826;2022-10-16T07:09:09;17.60;;;15.90;;
64619;SDS011;51029;51.058;13.826;2022-10-16T07:11:36;15.97;;;14.37;;
64619;SDS011;51029;51.058;13.826;2022-10-16T07:14:02;17.10;;;13.73;;
64619;SDS011;51029;51.058;13.826;2022-10-16T07:16:29;16.13;;;14.17;;
64619;SDS011;51029;51.058;13.826;2022-10-16T07:19:00;17.60;;;15.50;;
64619;SDS011;51029;51.058;13.826;2022-10-16T07:21:28;17.37;;;13.87;;
64619;SDS011;51029;51.058;13.826;2022-10-16T07:24:02;16.50;;;14.87;;
64619;SDS011;51029;51.058;13.826;2022-10-16T07:26:29;15.87;;;14.17;;
64619;SDS011;51029;51.058;13.826;2022-10-16T07:28:56;14.27;;;13.00;;
64619;SDS011;51029;51.058;13.826;2022-10-16T07:31:23;19.10;;;13.47;;
64619;SDS011;51029;51.058;13.826;2022-10-16T07:33:49;23.70;;;13.43;;
64619;SDS011;51029;51.058;13.826;2022-10-16T07:36:16;16.47;;;13.50;;
64619;SDS011;51029;51.058;13.826;2022-10-16T07:38:44;18.93;;;13.33;;
64619;SDS011;51029;51.058;13.826;2022-10-16T07:41:11;14.63;;;12.90;;
64619;SDS011;51029;51.058;13.826;2022-10-16T07:43:38;17.03;;;12.63;;
64619;SDS011;51029;51.058;13.826;2022-10-16T07:46:04;13.87;;;11.80;;
64619;SDS011;51029;51.058;13.826;2022-10-16T07:48:31;17.30;;;11.00;;
64619;SDS011;51029;51.058;13.826;2022-10-16T07:50:58;15.30;;;11.03;;
64619;SDS011;51029;51.058;13.826;2022-10-16T07:53:25;16.23;;;10.47;;
64619;SDS011;51029;51.058;13.826;2022-10-16T07:55:51;14.17;;;10.20;;
64619;SDS011;51029;51.058;13.826;2022-10-16T07:58:17;16.00;;;10.17;;
64619;SDS011;51029;51.058;13.826;2022-10-16T08:00:43;11.60;;;9.30;;
64619;SDS011;51029;51.058;13.826;2022-10-16T08:03:08;15.13;;;8.93;;
64619;SDS011;51029;51.058;13.826;2022-10-16T08:05:34;13.23;;;8.27;;
64619;SDS011;51029;51.058;13.826;2022-10-16T08:08:00;15.83;;;8.40;;
64619;SDS011;51029;51.058;13.826;2022-10-16T08:10:27;12.50;;;6.77;;
64619;SDS011;51029;51.058;13.826;2022-10-16T08:12:53;9.00;;;6.73;;
64619;SDS011;51029;51.058;13.826;2022-10-16T08:15:19;12.50;;;6.57;;
64619;SDS011;51029;51.058;13.826;2022-10-16T08:18:06;11.60;;;5.63;;
64619;SDS011;51029;51.058;13.826;2022-10-16T08:20:31;10.83;;;6.13;;
64619;SDS011;51029;51.058;13.826;2022-10-16T08:22:58;15.50;;;5.93;;
64619;SDS011;51029;51.058;13.826;2022-10-16T08:25:25;34.00;;;26.10;;
64619;SDS011;51029;51.058;13.826;2022-10-16T08:27:51;24.40;;;20.73;;
64619;SDS011;51029;51.058;13.826;2022-10-16T08:30:17;9.27;;;6.40;;
64619;SDS011;51029;51.058;13.826;2022-10-16T08:32:43;12.90;;;5.90;;
64619;SDS011;51029;51.058;13.826;2022-10-16T08:35:10;15.43;;;5.03;;
64619;SDS011;51029;51.058;13.826;2022-10-16T08:37:36;11.07;;;4.47;;
64619;SDS011;51029;51.058;13.826;2022-10-16T08:40:03;16.67;;;4.70;;
64619;SDS011;51029;51.058;13.826;2022-10-16T08:50:52;9.50;;;4.73;;
64619;SDS011;51029;51.058;13.826;2022-10-16T08:53:43;12.37;;;5.23;;
64619;SDS011;51029;51.058;13.826;2022-10-16T08:56:14;11.77;;;4.30;;
64619;SDS011;51029;51.058;13.826;2022-10-16T08:58:39;7.50;;;4.10;;
64619;SDS011;51029;51.058;13.826;2022-10-16T09:01:10;15.17;;;5.30;;
64619;SDS011;51029;51.058;13.826;2022-10-16T09:06:33;5.03;;;4.70;;
64619;SDS011;51029;51.058;13.826;2022-10-16T09:11:40;8.40;;;4.57;;
64619;SDS011;51029;51.058;13.826;2022-10-16T09:17:46;21.67;;;7.70;;
64619;SDS011;51029;51.058;13.826;2022-10-16T09:22:51;3.90;;;3.53;;
64619;SDS011;51029;51.058;13.826;2022-10-16T09:25:33;4.70;;;3.50;;
64619;SDS011;51029;51.058;13.826;2022-10-16T09:27:59;3.20;;;2.90;;
64619;SDS011;51029;51.058;13.826;2022-10-16T09:30:26;2.53;;;2.40;;
64619;SDS011;51029;51.058;13.826;2022-10-16T09:32:54;11.23;;;7.43;;
64619;SDS011;51029;51.058;13.826;2022-10-16T09:35:24;3.73;;;3.23;;
64619;SDS011;51029;51.058;13.826;2022-10-16T09:37:56;3.97;;;3.60;;
64619;SDS011;51029;51.058;13.826;2022-10-16T09:40:38;8.37;;;6.37;;
64619;SDS011;51029;51.058;13.826;2022-10-16T09:48:21;10.33;;;7.37;;
64619;SDS011;51029;51.058;13.826;2022-10-16T09:51:00;15.03;;;6.00;;
64619;SDS011;51029;51.058;13.826;2022-10-16T09:54:29;6.70;;;4.70;;
64619;SDS011;51029;51.058;13.826;2022-10-16T09:56:32;5.60;;;5.10;;
64619;SDS011;51029;51.058;13.826;2022-10-16T09:59:02;5.40;;;4.90;;
64619;SDS011;51029;51.058;13.826;2022-10-16T10:01:36;7.03;;;4.90;;
64619;SDS011;51029;51.058;13.826;2022-10-16T10:04:04;5.83;;;5.33;;
64619;SDS011;51029;51.058;13.826;2022-10-16T10:06:35;5.20;;;4.70;;
64619;SDS011;51029;51.058;13.826;2022-10-16T10:09:24;6.10;;;4.80;;
64619;SDS011;51029;51.058;13.826;2022-10-16T10:12:04;6.40;;;4.50;;
64619;SDS011;51029;51.058;13.826;2022-10-16T10:14:52;7.70;;;4.30;;
64619;SDS011;51029;51.058;13.826;2022-10-16T10:17:27;7.43;;;4.80;;
64619;SDS011;51029;51.058;13.826;2022-10-16T10:22:26;5.90;;;4.57;;
64619;SDS011;51029;51.058;13.826;2022-10-16T10:27:36;4.60;;;4.00;;
64619;SDS011;51029;51.058;13.826;2022-10-16T10:30:22;5.20;;;4.00;;
64619;SDS011;51029;51.058;13.826;2022-10-16T10:33:00;6.30;;;4.37;;
64619;SDS011;51029;51.058;13.826;2022-10-16T10:38:20;5.40;;;3.57;;
64619;SDS011;51029;51.058;13.826;2022-10-16T10:40:56;8.13;;;3.90;;
64619;SDS011;51029;51.058;13.826;2022-10-16T10:43:40;3.60;;;2.80;;
64619;SDS011;51029;51.058;13.826;2022-10-16T10:46:09;2.97;;;2.77;;
64619;SDS011;51029;51.058;13.826;2022-10-16T10:51:33;3.25;;;2.90;;
64619;SDS011;51029;51.058;13.826;2022-10-16T10:57:02;6.47;;;3.20;;
64619;SDS011;51029;51.058;13.826;2022-10-16T11:02:33;3.00;;;2.67;;
64619;SDS011;51029;51.058;13.826;2022-10-16T11:07:51;3.77;;;3.00;;
64619;SDS011;51029;51.058;13.826;2022-10-16T11:10:23;3.63;;;3.10;;
64619;SDS011;51029;51.058;13.826;2022-10-16T11:12:57;3.60;;;2.80;;
64619;SDS011;51029;51.058;13.826;2022-10-16T11:15:31;3.70;;;2.57;;
64619;SDS011;51029;51.058;13.826;2022-10-16T11:20:46;4.03;;;2.10;;
64619;SDS011;51029;51.058;13.826;2022-10-16T11:25:54;2.20;;;1.43;;
64619;SDS011;51029;51.058;13.826;2022-10-16T11:28:29;1.00;;;0.73;;
64619;SDS011;51029;51.058;13.826;2022-10-16T11:33:49;2.97;;;0.97;;
64619;SDS011;51029;51.058;13.826;2022-10-16T11:37:09;0.80;;;0.60;;
64619;SDS011;51029;51.058;13.826;2022-10-16T11:39:21;0.70;;;0.60;;
64619;SDS011;51029;51.058;13.826;2022-10-16T11:44:36;2.27;;;0.70;;
64619;SDS011;51029;51.058;13.826;2022-10-16T11:50:02;1.60;;;0.73;;
64619;SDS011;51029;51.058;13.826;2022-10-16T11:52:35;2.00;;;0.80;;
64619;SDS011;51029;51.058;13.826;2022-10-16T11:55:14;0.50;;;0.50;;
64619;SDS011;51029;51.058;13.826;2022-10-16T11:57:53;1.50;;;0.87;;
64619;SDS011;51029;51.058;13.826;2022-10-16T12:00:23;2.03;;;0.60;;
64619;SDS011;51029;51.058;13.826;2022-10-16T12:05:55;0.70;;;0.60;;
64619;SDS011;51029;51.058;13.826;2022-10-16T12:08:24;0.73;;;0.60;;
64619;SDS011;51029;51.058;13.826;2022-10-16T12:10:50;2.97;;;0.80;;
64619;SDS011;51029;51.058;13.826;2022-10-16T12:13:33;1.67;;;0.70;;
64619;SDS011;51029;51.058;13.826;2022-10-16T12:16:50;1.87;;;0.60;;
64619;SDS011;51029;51.058;13.826;2022-10-16T12:18:49;1.23;;;0.80;;
64619;SDS011;51029;51.058;13.826;2022-10-16T12:21:34;1.27;;;0.77;;
64619;SDS011;51029;51.058;13.826;2022-10-16T12:24:00;3.03;;;0.70;;
64619;SDS011;51029;51.058;13.826;2022-10-16T12:26:30;2.43;;;0.50;;
64619;SDS011;51029;51.058;13.826;2022-10-16T12:29:17;1.63;;;0.70;;
64619;SDS011;51029;51.058;13.826;2022-10-16T12:31:57;1.97;;;0.70;;
64619;SDS011;51029;51.058;13.826;2022-10-16T12:37:20;1.30;;;0.70;;
64619;SDS011;51029;51.058;13.826;2022-10-16T12:39:58;0.77;;;0.60;;
64619;SDS011;51029;51.058;13.826;2022-10-16T12:42:35;1.33;;;0.60;;
64619;SDS011;51029;51.058;13.826;2022-10-16T12:45:01;2.27;;;0.70;;
64619;SDS011;51029;51.058;13.826;2022-10-16T12:47:53;1.77;;;0.70;;
64619;SDS011;51029;51.058;13.826;2022-10-16T12:50:38;2.20;;;0.80;;
64619;SDS011;51029;51.058;13.826;2022-10-16T12:56:05;0.73;;;0.60;;
64619;SDS011;51029;51.058;13.826;2022-10-16T13:01:39;1.93;;;0.60;;
64619;SDS011;51029;51.058;13.826;2022-10-16T13:09:58;2.40;;;0.60;;
64619;SDS011;51029;51.058;13.826;2022-10-16T13:12:44;1.03;;;0.60;;
64619;SDS011;51029;51.058;13.826;2022-10-16T13:21:11;1.20;;;0.60;;
64619;SDS011;51029;51.058;13.826;2022-10-16T13:29:30;0.83;;;0.70;;
64619;SDS011;51029;51.058;13.826;2022-10-16T13:31:57;1.93;;;0.80;;
64619;SDS011;51029;51.058;13.826;2022-10-16T13:34:25;4.63;;;0.77;;
64619;SDS011;51029;51.058;13.826;2022-10-16T13:36:52;1.30;;;0.63;;
64619;SDS011;51029;51.058;13.826;2022-10-16T13:41:58;2.90;;;0.80;;
64619;SDS011;51029;51.058;13.826;2022-10-16T13:44:39;4.90;;;1.00;;
64619;SDS011;51029;51.058;13.826;2022-10-16T13:47:12;4.10;;;1.10;;
64619;SDS011;51029;51.058;13.826;2022-10-16T13:49:41;5.23;;;1.20;;
64619;SDS011;51029;51.058;13.826;2022-10-16T13:52:15;2.30;;;1.00;;
64619;SDS011;51029;51.058;13.826;2022-10-16T13:54:43;5.37;;;1.30;;
64619;SDS011;51029;51.058;13.826;2022-10-16T13:57:11;13.53;;;2.43;;
64619;SDS011;51029;51.058;13.826;2022-10-16T13:59:42;14.60;;;2.43;;
64619;SDS011;51029;51.058;13.826;2022-10-16T14:02:16;9.70;;;1.90;;
64619;SDS011;51029;51.058;13.826;2022-10-16T14:04:51;15.73;;;2.37;;
64619;SDS011;51029;51.058;13.826;2022-10-16T14:07:28;10.63;;;1.90;;
64619;SDS011;51029;51.058;13.826;2022-10-16T14:09:56;5.87;;;1.43;;
64619;SDS011;51029;51.058;13.826;2022-10-16T14:12:31;4.90;;;1.20;;
64619;SDS011;51029;51.058;13.826;2022-10-16T14:14:57;10.00;;;1.67;;
64619;SDS011;51029;51.058;13.826;2022-10-16T14:17:28;8.00;;;1.43;;
64619;SDS011;51029;51.058;13.826;2022-10-16T14:19:59;6.90;;;1.40;;
64619;SDS011;51029;51.058;13.826;2022-10-16T14:22:36;11.00;;;1.90;;
64619;SDS011;51029;51.058;13.826;2022-10-16T14:25:21;7.67;;;1.30;;
64619;SDS011;51029;51.058;13.826;2022-10-16T14:27:56;6.87;;;1.30;;
64619;SDS011;51029;51.058;13.826;2022-10-16T14:30:24;3.10;;;1.20;;
64619;SDS011;51029;51.058;13.826;2022-10-16T14:33:01;6.37;;;1.60;;
64619;SDS011;51029;51.058;13.826;2022-10-16T14:35:35;8.60;;;1.70;;
64619;SDS011;51029;51.058;13.826;2022-10-16T14:38:03;8.07;;;2.00;;
64619;SDS011;51029;51.058;13.826;2022-10-16T14:40:31;8.00;;;2.90;;
64619;SDS011;51029;51.058;13.826;2022-10-16T14:42:59;3.97;;;1.40;;
64619;SDS011;51029;51.058;13.826;2022-10-16T14:45:27;6.87;;;1.57;;
64619;SDS011;51029;51.058;13.826;2022-10-16T14:47:58;7.00;;;1.63;;
64619;SDS011;51029;51.058;13.826;2022-10-16T14:50:26;4.10;;;1.43;;
64619;SDS011;51029;51.058;13.826;2022-10-16T14:52:51;11.40;;;1.90;;
64619;SDS011;51029;51.058;13.826;2022-10-16T14:55:17;6.20;;;1.70;;
64619;SDS011;51029;51.058;13.826;2022-10-16T14:57:43;5.37;;;1.60;;
64619;SDS011;51029;51.058;13.826;2022-10-16T15:00:14;4.37;;;1.47;;
64619;SDS011;51029;51.058;13.826;2022-10-16T15:02:41;10.60;;;1.90;;
64619;SDS011;51029;51.058;13.826;2022-10-16T15:05:12;2.83;;;1.30;;
64619;SDS011;51029;51.058;13.826;2022-10-16T15:07:40;8.17;;;1.83;;
64619;SDS011;51029;51.058;13.826;2022-10-16T15:10:06;4.63;;;1.63;;
64619;SDS011;51029;51.058;13.826;2022-10-16T15:12:32;4.37;;;1.50;;
64619;SDS011;51029;51.058;13.826;2022-10-16T15:14:58;5.07;;;1.67;;
64619;SDS011;51029;51.058;13.826;2022-10-16T15:17:23;4.20;;;1.67;;
64619;SDS011;51029;51.058;13.826;2022-10-16T15:19:49;3.73;;;1.80;;
64619;SDS011;51029;51.058;13.826;2022-10-16T15:22:16;7.63;;;1.90;;
64619;SDS011;51029;51.058;13.826;2022-10-16T15:24:42;8.27;;;1.70;;
64619;SDS011;51029;51.058;13.826;2022-10-16T15:27:07;4.57;;;1.60;;
64619;SDS011;51029;51.058;13.826;2022-10-16T15:29:33;4.77;;;1.53;;
64619;SDS011;51029;51.058;13.826;2022-10-16T15:31:58;5.70;;;1.57;;
64619;SDS011;51029;51.058;13.826;2022-10-16T15:34:24;9.57;;;2.07;;
64619;SDS011;51029;51.058;13.826;2022-10-16T15:36:49;4.87;;;1.87;;
64619;SDS011;51029;51.058;13.826;2022-10-16T15:39:16;6.23;;;1.70;;
64619;SDS011;51029;51.058;13.826;2022-10-16T15:41:44;10.00;;;2.00;;
64619;SDS011;51029;51.058;13.826;2022-10-16T15:44:12;8.87;;;1.80;;
64619;SDS011;51029;51.058;13.826;2022-10-16T15:46:38;6.00;;;1.90;;
64619;SDS011;51029;51.058;13.826;2022-10-16T15:49:03;4.00;;;1.60;;
64619;SDS011;51029;51.058;13.826;2022-10-16T15:51:29;9.63;;;2.40;;
64619;SDS011;51029;51.058;13.826;2022-10-16T15:53:57;3.20;;;2.00;;
64619;SDS011;51029;51.058;13.826;2022-10-16T15:56:24;17.43;;;3.50;;
64619;SDS011;51029;51.058;13.826;2022-10-16T15:58:51;12.00;;;2.70;;
64619;SDS011;51029;51.058;13.826;2022-10-16T16:01:17;17.07;;;5.57;;
64619;SDS011;51029;51.058;13.826;2022-10-16T16:03:43;13.90;;;6.17;;
64619;SDS011;51029;51.058;13.826;2022-10-16T16:06:10;17.07;;;4.43;;
64619;SDS011;51029;51.058;13.826;2022-10-16T16:08:37;14.43;;;3.90;;
64619;SDS011;51029;51.058;13.826;2022-10-16T16:11:04;7.43;;;2.83;;